Mossbank, Canada
Current Conditions -  °F | °C
As of 10:10 AM on Sunday 25 Jan 2015 (Local Time) from CYQR Reporting Station
Haze Haze  
Wind Chill: 15°   Ceiling: 300
Heat Index: 25°   Visibility: 1.2mi
Dew Point: 25°   Wind: 10mph
Humidity: 100%   Direction: 130°SE
Pressure: 29.9"   Gusts: NA
Location:  49.93°N, 105.97°W
Report Text: CYQR 251610Z 13009KT 1 1/4SM BR OVC003 M04/M04 A2990 RMK ST8 SLP155
Loading
Personal Weather Stations






























Interactive Weather Map New forecast layout! Learn more

10-Day Weather Forecast

Advertisements
Track Severe Weather on mobile